sensor_id;sensor_type;location;lat;lon;timestamp;temperature;humidity
2907;DHT22;1463;51.070;16.998;2023-05-07T00:02:11;10.50;99.90
2907;DHT22;1463;51.070;16.998;2023-05-07T00:04:38;10.50;99.90
2907;DHT22;1463;51.070;16.998;2023-05-07T00:07:05;10.40;99.90
2907;DHT22;1463;51.070;16.998;2023-05-07T00:09:33;10.30;99.90
2907;DHT22;1463;51.070;16.998;2023-05-07T00:12:02;10.30;99.90
2907;DHT22;1463;51.070;16.998;2023-05-07T00:14:29;10.30;99.90
2907;DHT22;1463;51.070;16.998;2023-05-07T00:16:57;10.40;99.90
2907;DHT22;1463;51.070;16.998;2023-05-07T00:19:24;10.40;99.90
2907;DHT22;1463;51.070;16.998;2023-05-07T00:21:52;10.30;99.90
2907;DHT22;1463;51.070;16.998;2023-05-07T00:24:22;10.30;99.90
2907;DHT22;1463;51.070;16.998;2023-05-07T00:26:49;10.30;99.90
2907;DHT22;1463;51.070;16.998;2023-05-07T00:29:19;10.30;99.90
2907;DHT22;1463;51.070;16.998;2023-05-07T00:31:49;10.30;99.90
2907;DHT22;1463;51.070;16.998;2023-05-07T00:34:16;10.20;99.90
2907;DHT22;1463;51.070;16.998;2023-05-07T00:36:44;10.30;99.90
2907;DHT22;1463;51.070;16.998;2023-05-07T00:39:11;10.30;99.90
2907;DHT22;1463;51.070;16.998;2023-05-07T00:41:39;10.30;99.90
2907;DHT22;1463;51.070;16.998;2023-05-07T00:44:06;10.30;99.90
2907;DHT22;1463;51.070;16.998;2023-05-07T00:46:35;10.30;99.90
2907;DHT22;1463;51.070;16.998;2023-05-07T00:49:03;10.30;99.90
2907;DHT22;1463;51.070;16.998;2023-05-07T00:51:32;10.30;99.90
2907;DHT22;1463;51.070;16.998;2023-05-07T00:54:01;10.30;99.90
2907;DHT22;1463;51.070;16.998;2023-05-07T00:56:29;10.30;99.90
2907;DHT22;1463;51.070;16.998;2023-05-07T00:58:56;10.30;99.90
2907;DHT22;1463;51.070;16.998;2023-05-07T01:01:24;10.40;99.90
2907;DHT22;1463;51.070;16.998;2023-05-07T01:03:53;10.40;99.90
2907;DHT22;1463;51.070;16.998;2023-05-07T01:06:22;10.40;99.90
2907;DHT22;1463;51.070;16.998;2023-05-07T01:08:51;10.50;99.90
2907;DHT22;1463;51.070;16.998;2023-05-07T01:11:19;10.40;99.90
2907;DHT22;1463;51.070;16.998;2023-05-07T01:13:47;10.40;99.90
2907;DHT22;1463;51.070;16.998;2023-05-07T01:16:16;10.50;99.90
2907;DHT22;1463;51.070;16.998;2023-05-07T01:18:43;10.50;99.90
2907;DHT22;1463;51.070;16.998;2023-05-07T01:21:16;10.60;99.90
2907;DHT22;1463;51.070;16.998;2023-05-07T01:23:46;10.50;99.90
2907;DHT22;1463;51.070;16.998;2023-05-07T01:26:14;10.40;99.90
2907;DHT22;1463;51.070;16.998;2023-05-07T01:28:42;10.30;99.90
2907;DHT22;1463;51.070;16.998;2023-05-07T01:31:09;10.30;99.90
2907;DHT22;1463;51.070;16.998;2023-05-07T01:33:38;10.50;99.90
2907;DHT22;1463;51.070;16.998;2023-05-07T01:36:09;10.40;99.90
2907;DHT22;1463;51.070;16.998;2023-05-07T01:38:37;10.40;99.90
2907;DHT22;1463;51.070;16.998;2023-05-07T01:41:06;10.40;99.90
2907;DHT22;1463;51.070;16.998;2023-05-07T01:43:34;10.50;99.90
2907;DHT22;1463;51.070;16.998;2023-05-07T01:46:03;10.40;99.90
2907;DHT22;1463;51.070;16.998;2023-05-07T01:48:31;10.40;99.90
2907;DHT22;1463;51.070;16.998;2023-05-07T01:51:00;10.30;99.90
2907;DHT22;1463;51.070;16.998;2023-05-07T01:53:28;10.40;99.90
2907;DHT22;1463;51.070;16.998;2023-05-07T01:55:55;10.40;99.90
2907;DHT22;1463;51.070;16.998;2023-05-07T01:58:24;10.30;99.90
2907;DHT22;1463;51.070;16.998;2023-05-07T02:00:52;10.30;99.90
2907;DHT22;1463;51.070;16.998;2023-05-07T02:03:19;10.30;99.90
2907;DHT22;1463;51.070;16.998;2023-05-07T02:05:47;10.30;99.90
2907;DHT22;1463;51.070;16.998;2023-05-07T02:08:14;10.20;99.90
2907;DHT22;1463;51.070;16.998;2023-05-07T02:10:41;10.20;99.90
2907;DHT22;1463;51.070;16.998;2023-05-07T02:13:09;10.30;99.90
2907;DHT22;1463;51.070;16.998;2023-05-07T02:15:38;10.30;99.90
2907;DHT22;1463;51.070;16.998;2023-05-07T02:18:07;10.30;99.90
2907;DHT22;1463;51.070;16.998;2023-05-07T02:20:35;10.40;99.90
2907;DHT22;1463;51.070;16.998;2023-05-07T02:23:02;10.30;99.90
2907;DHT22;1463;51.070;16.998;2023-05-07T02:25:30;10.20;99.90
2907;DHT22;1463;51.070;16.998;2023-05-07T02:27:58;10.20;99.90
2907;DHT22;1463;51.070;16.998;2023-05-07T02:30:26;10.10;99.90
2907;DHT22;1463;51.070;16.998;2023-05-07T02:32:55;10.10;99.90
2907;DHT22;1463;51.070;16.998;2023-05-07T02:35:24;10.20;99.90
2907;DHT22;1463;51.070;16.998;2023-05-07T02:37:51;10.30;99.90
2907;DHT22;1463;51.070;16.998;2023-05-07T02:40:19;10.40;99.90
2907;DHT22;1463;51.070;16.998;2023-05-07T02:42:47;10.30;99.90
2907;DHT22;1463;51.070;16.998;2023-05-07T02:45:14;10.30;99.90
2907;DHT22;1463;51.070;16.998;2023-05-07T02:47:41;10.40;99.90
2907;DHT22;1463;51.070;16.998;2023-05-07T02:50:11;10.40;99.90
2907;DHT22;1463;51.070;16.998;2023-05-07T02:52:38;10.40;99.90
2907;DHT22;1463;51.070;16.998;2023-05-07T02:55:06;10.40;99.90
2907;DHT22;1463;51.070;16.998;2023-05-07T02:57:34;10.40;99.90
2907;DHT22;1463;51.070;16.998;2023-05-07T03:00:11;10.40;99.90
2907;DHT22;1463;51.070;16.998;2023-05-07T03:02:38;10.20;99.90
2907;DHT22;1463;51.070;16.998;2023-05-07T03:05:07;10.10;99.90
2907;DHT22;1463;51.070;16.998;2023-05-07T03:07:36;10.10;99.90
2907;DHT22;1463;51.070;16.998;2023-05-07T03:10:05;10.10;99.90
2907;DHT22;1463;51.070;16.998;2023-05-07T03:12:33;10.10;99.90
2907;DHT22;1463;51.070;16.998;2023-05-07T03:15:00;10.10;99.90
2907;DHT22;1463;51.070;16.998;2023-05-07T03:17:28;10.30;99.90
2907;DHT22;1463;51.070;16.998;2023-05-07T03:19:55;10.30;99.90
2907;DHT22;1463;51.070;16.998;2023-05-07T03:22:23;10.40;99.90
2907;DHT22;1463;51.070;16.998;2023-05-07T03:24:52;10.30;99.90
2907;DHT22;1463;51.070;16.998;2023-05-07T03:27:20;10.20;99.90
2907;DHT22;1463;51.070;16.998;2023-05-07T03:29:47;10.20;99.90
2907;DHT22;1463;51.070;16.998;2023-05-07T03:32:15;10.30;99.90
2907;DHT22;1463;51.070;16.998;2023-05-07T03:34:42;10.30;99.90
2907;DHT22;1463;51.070;16.998;2023-05-07T03:37:10;10.40;99.90
2907;DHT22;1463;51.070;16.998;2023-05-07T03:39:37;10.40;99.90
2907;DHT22;1463;51.070;16.998;2023-05-07T03:42:06;10.30;99.90
2907;DHT22;1463;51.070;16.998;2023-05-07T03:44:34;10.30;99.90
2907;DHT22;1463;51.070;16.998;2023-05-07T03:47:02;10.30;99.90
2907;DHT22;1463;51.070;16.998;2023-05-07T03:49:29;10.20;99.90
2907;DHT22;1463;51.070;16.998;2023-05-07T03:51:57;10.30;99.90
2907;DHT22;1463;51.070;16.998;2023-05-07T03:54:24;10.20;99.90
2907;DHT22;1463;51.070;16.998;2023-05-07T03:56:52;10.10;99.90
2907;DHT22;1463;51.070;16.998;2023-05-07T03:59:21;9.90;99.90
2907;DHT22;1463;51.070;16.998;2023-05-07T04:01:49;9.90;99.90
2907;DHT22;1463;51.070;16.998;2023-05-07T04:04:17;9.90;99.90
2907;DHT22;1463;51.070;16.998;2023-05-07T04:06:44;10.00;99.90
2907;DHT22;1463;51.070;16.998;2023-05-07T04:09:12;10.00;99.90
2907;DHT22;1463;51.070;16.998;2023-05-07T04:11:40;10.10;99.90
2907;DHT22;1463;51.070;16.998;2023-05-07T04:14:07;10.20;99.90
2907;DHT22;1463;51.070;16.998;2023-05-07T04:16:36;10.20;99.90
2907;DHT22;1463;51.070;16.998;2023-05-07T04:19:03;10.20;99.90
2907;DHT22;1463;51.070;16.998;2023-05-07T04:21:31;10.20;99.90
2907;DHT22;1463;51.070;16.998;2023-05-07T04:24:00;10.10;99.90
2907;DHT22;1463;51.070;16.998;2023-05-07T04:26:29;10.10;99.90
2907;DHT22;1463;51.070;16.998;2023-05-07T04:28:57;10.20;99.90
2907;DHT22;1463;51.070;16.998;2023-05-07T04:31:25;10.10;99.90
2907;DHT22;1463;51.070;16.998;2023-05-07T04:33:54;10.20;99.90
2907;DHT22;1463;51.070;16.998;2023-05-07T04:36:22;10.40;99.90
2907;DHT22;1463;51.070;16.998;2023-05-07T04:38:49;10.20;99.90
2907;DHT22;1463;51.070;16.998;2023-05-07T04:41:17;10.20;99.90
2907;DHT22;1463;51.070;16.998;2023-05-07T04:43:44;10.20;99.90
2907;DHT22;1463;51.070;16.998;2023-05-07T04:46:12;10.20;99.90
2907;DHT22;1463;51.070;16.998;2023-05-07T04:48:39;10.10;99.90
2907;DHT22;1463;51.070;16.998;2023-05-07T04:51:08;10.20;99.90
2907;DHT22;1463;51.070;16.998;2023-05-07T04:53:37;10.10;99.90
2907;DHT22;1463;51.070;16.998;2023-05-07T04:56:05;10.00;99.90
2907;DHT22;1463;51.070;16.998;2023-05-07T04:58:33;10.00;99.90
2907;DHT22;1463;51.070;16.998;2023-05-07T05:01:01;9.80;99.90
2907;DHT22;1463;51.070;16.998;2023-05-07T05:03:28;9.90;99.90
2907;DHT22;1463;51.070;16.998;2023-05-07T05:05:56;10.00;99.90
2907;DHT22;1463;51.070;16.998;2023-05-07T05:08:26;10.00;99.90
2907;DHT22;1463;51.070;16.998;2023-05-07T05:10:54;10.00;99.90
2907;DHT22;1463;51.070;16.998;2023-05-07T05:13:21;10.00;99.90
2907;DHT22;1463;51.070;16.998;2023-05-07T05:15:50;10.10;99.90
2907;DHT22;1463;51.070;16.998;2023-05-07T05:18:17;10.10;99.90
2907;DHT22;1463;51.070;16.998;2023-05-07T05:20:45;10.20;99.90
2907;DHT22;1463;51.070;16.998;2023-05-07T05:23:13;10.30;99.90
2907;DHT22;1463;51.070;16.998;2023-05-07T05:25:42;10.40;99.90
2907;DHT22;1463;51.070;16.998;2023-05-07T05:28:10;10.40;99.90
2907;DHT22;1463;51.070;16.998;2023-05-07T05:30:38;10.30;99.90
2907;DHT22;1463;51.070;16.998;2023-05-07T05:33:06;10.30;99.90
2907;DHT22;1463;51.070;16.998;2023-05-07T05:35:33;10.40;99.90
2907;DHT22;1463;51.070;16.998;2023-05-07T05:38:02;10.50;99.90
2907;DHT22;1463;51.070;16.998;2023-05-07T05:40:30;10.50;99.90
2907;DHT22;1463;51.070;16.998;2023-05-07T05:43:00;10.50;99.90
2907;DHT22;1463;51.070;16.998;2023-05-07T05:45:28;10.50;99.90
2907;DHT22;1463;51.070;16.998;2023-05-07T05:47:56;10.30;99.90
2907;DHT22;1463;51.070;16.998;2023-05-07T05:50:24;10.40;99.90
2907;DHT22;1463;51.070;16.998;2023-05-07T05:52:51;10.30;99.90
2907;DHT22;1463;51.070;16.998;2023-05-07T05:55:19;10.40;99.90
2907;DHT22;1463;51.070;16.998;2023-05-07T05:57:47;10.30;99.90
2907;DHT22;1463;51.070;16.998;2023-05-07T06:00:18;10.20;99.90
2907;DHT22;1463;51.070;16.998;2023-05-07T06:02:48;10.30;99.90
2907;DHT22;1463;51.070;16.998;2023-05-07T06:05:15;10.30;99.90
2907;DHT22;1463;51.070;16.998;2023-05-07T06:07:43;10.40;99.90
2907;DHT22;1463;51.070;16.998;2023-05-07T06:10:10;10.50;99.90
2907;DHT22;1463;51.070;16.998;2023-05-07T06:12:38;10.70;99.90
2907;DHT22;1463;51.070;16.998;2023-05-07T06:15:06;10.60;99.90
2907;DHT22;1463;51.070;16.998;2023-05-07T06:17:35;10.60;99.90
2907;DHT22;1463;51.070;16.998;2023-05-07T06:20:03;10.50;99.90
2907;DHT22;1463;51.070;16.998;2023-05-07T06:22:31;10.60;99.90
2907;DHT22;1463;51.070;16.998;2023-05-07T06:24:58;10.60;99.90
2907;DHT22;1463;51.070;16.998;2023-05-07T06:27:26;10.60;99.90
2907;DHT22;1463;51.070;16.998;2023-05-07T06:29:53;10.40;99.90
2907;DHT22;1463;51.070;16.998;2023-05-07T06:32:21;10.40;99.90
2907;DHT22;1463;51.070;16.998;2023-05-07T06:34:50;10.60;99.90
2907;DHT22;1463;51.070;16.998;2023-05-07T06:37:17;10.60;99.90
2907;DHT22;1463;51.070;16.998;2023-05-07T06:39:45;10.60;99.90
2907;DHT22;1463;51.070;16.998;2023-05-07T06:42:12;10.60;99.90
2907;DHT22;1463;51.070;16.998;2023-05-07T06:44:40;10.60;99.90
2907;DHT22;1463;51.070;16.998;2023-05-07T06:47:07;10.60;99.90
2907;DHT22;1463;51.070;16.998;2023-05-07T06:49:35;10.70;99.90
2907;DHT22;1463;51.070;16.998;2023-05-07T06:52:04;10.70;99.90
2907;DHT22;1463;51.070;16.998;2023-05-07T06:54:31;10.60;99.90
2907;DHT22;1463;51.070;16.998;2023-05-07T06:56:59;10.60;99.90
2907;DHT22;1463;51.070;16.998;2023-05-07T06:59:27;10.50;99.90
2907;DHT22;1463;51.070;16.998;2023-05-07T07:01:54;10.50;99.90
2907;DHT22;1463;51.070;16.998;2023-05-07T07:04:22;10.50;99.90
2907;DHT22;1463;51.070;16.998;2023-05-07T07:06:50;10.50;99.90
2907;DHT22;1463;51.070;16.998;2023-05-07T07:09:20;10.50;99.90
2907;DHT22;1463;51.070;16.998;2023-05-07T07:11:47;10.50;99.90
2907;DHT22;1463;51.070;16.998;2023-05-07T07:14:15;10.40;99.90
2907;DHT22;1463;51.070;16.998;2023-05-07T07:16:42;10.50;99.90
2907;DHT22;1463;51.070;16.998;2023-05-07T07:19:09;10.40;99.90
2907;DHT22;1463;51.070;16.998;2023-05-07T07:21:37;10.40;99.90
2907;DHT22;1463;51.070;16.998;2023-05-07T07:24:05;10.50;99.90
2907;DHT22;1463;51.070;16.998;2023-05-07T07:26:40;10.40;99.90
2907;DHT22;1463;51.070;16.998;2023-05-07T07:29:08;10.40;99.90
2907;DHT22;1463;51.070;16.998;2023-05-07T07:31:36;10.40;99.90
2907;DHT22;1463;51.070;16.998;2023-05-07T07:34:03;10.40;99.90
2907;DHT22;1463;51.070;16.998;2023-05-07T07:36:30;10.50;99.90
2907;DHT22;1463;51.070;16.998;2023-05-07T07:38:58;10.50;99.90
2907;DHT22;1463;51.070;16.998;2023-05-07T07:41:25;10.50;99.90
2907;DHT22;1463;51.070;16.998;2023-05-07T07:43:54;10.50;99.90
2907;DHT22;1463;51.070;16.998;2023-05-07T07:46:21;10.50;99.90
2907;DHT22;1463;51.070;16.998;2023-05-07T07:48:49;10.70;99.90
2907;DHT22;1463;51.070;16.998;2023-05-07T07:51:17;10.70;99.90
2907;DHT22;1463;51.070;16.998;2023-05-07T07:53:44;10.70;99.90
2907;DHT22;1463;51.070;16.998;2023-05-07T07:56:12;10.70;99.90
2907;DHT22;1463;51.070;16.998;2023-05-07T07:58:39;10.80;99.90
2907;DHT22;1463;51.070;16.998;2023-05-07T08:01:08;10.80;99.90
2907;DHT22;1463;51.070;16.998;2023-05-07T08:03:35;10.90;99.90
2907;DHT22;1463;51.070;16.998;2023-05-07T08:06:04;10.80;99.90
2907;DHT22;1463;51.070;16.998;2023-05-07T08:08:31;10.60;99.90
2907;DHT22;1463;51.070;16.998;2023-05-07T08:10:59;10.70;99.90
2907;DHT22;1463;51.070;16.998;2023-05-07T08:13:26;10.70;99.90
2907;DHT22;1463;51.070;16.998;2023-05-07T08:15:54;10.60;99.90
2907;DHT22;1463;51.070;16.998;2023-05-07T08:18:23;10.50;99.90
2907;DHT22;1463;51.070;16.998;2023-05-07T08:20:50;10.40;99.90
2907;DHT22;1463;51.070;16.998;2023-05-07T08:23:18;10.40;99.90
2907;DHT22;1463;51.070;16.998;2023-05-07T08:25:45;10.40;99.90
2907;DHT22;1463;51.070;16.998;2023-05-07T08:28:12;10.30;99.90
2907;DHT22;1463;51.070;16.998;2023-05-07T08:30:40;10.40;99.90
2907;DHT22;1463;51.070;16.998;2023-05-07T08:33:09;10.30;99.90
2907;DHT22;1463;51.070;16.998;2023-05-07T08:35:38;10.40;99.90
2907;DHT22;1463;51.070;16.998;2023-05-07T08:38:05;10.40;99.90
2907;DHT22;1463;51.070;16.998;2023-05-07T08:40:37;10.40;99.90
2907;DHT22;1463;51.070;16.998;2023-05-07T08:43:07;10.40;99.90
2907;DHT22;1463;51.070;16.998;2023-05-07T08:45:35;10.40;99.90
2907;DHT22;1463;51.070;16.998;2023-05-07T08:48:03;10.30;99.90
2907;DHT22;1463;51.070;16.998;2023-05-07T08:50:32;10.40;99.90
2907;DHT22;1463;51.070;16.998;2023-05-07T08:53:05;10.30;99.90
2907;DHT22;1463;51.070;16.998;2023-05-07T08:55:32;10.40;99.90
2907;DHT22;1463;51.070;16.998;2023-05-07T08:58:00;10.40;99.90
2907;DHT22;1463;51.070;16.998;2023-05-07T09:00:27;10.40;99.90
2907;DHT22;1463;51.070;16.998;2023-05-07T09:02:55;10.50;99.90
2907;DHT22;1463;51.070;16.998;2023-05-07T09:05:23;10.40;99.90
2907;DHT22;1463;51.070;16.998;2023-05-07T09:07:51;10.40;99.90
2907;DHT22;1463;51.070;16.998;2023-05-07T09:10:21;10.40;99.90
2907;DHT22;1463;51.070;16.998;2023-05-07T09:12:48;10.20;99.90
2907;DHT22;1463;51.070;16.998;2023-05-07T09:15:16;10.10;99.90
2907;DHT22;1463;51.070;16.998;2023-05-07T09:17:44;10.10;99.90
2907;DHT22;1463;51.070;16.998;2023-05-07T09:20:16;10.20;99.90
2907;DHT22;1463;51.070;16.998;2023-05-07T09:22:44;10.20;99.90
2907;DHT22;1463;51.070;16.998;2023-05-07T09:25:11;10.20;99.90
2907;DHT22;1463;51.070;16.998;2023-05-07T09:27:42;10.30;99.90
2907;DHT22;1463;51.070;16.998;2023-05-07T09:30:10;10.40;99.90
2907;DHT22;1463;51.070;16.998;2023-05-07T09:32:37;10.60;99.90
2907;DHT22;1463;51.070;16.998;2023-05-07T09:35:06;10.50;99.90
2907;DHT22;1463;51.070;16.998;2023-05-07T09:37:41;10.60;99.90
2907;DHT22;1463;51.070;16.998;2023-05-07T09:40:20;10.60;99.90
2907;DHT22;1463;51.070;16.998;2023-05-07T09:42:50;10.50;99.90
2907;DHT22;1463;51.070;16.998;2023-05-07T09:45:22;10.60;99.90
2907;DHT22;1463;51.070;16.998;2023-05-07T09:47:54;10.50;99.90
2907;DHT22;1463;51.070;16.998;2023-05-07T09:50:26;10.50;99.90
2907;DHT22;1463;51.070;16.998;2023-05-07T09:52:54;10.60;99.90
2907;DHT22;1463;51.070;16.998;2023-05-07T09:55:22;10.50;99.90
2907;DHT22;1463;51.070;16.998;2023-05-07T09:57:52;10.60;99.90
2907;DHT22;1463;51.070;16.998;2023-05-07T10:00:22;10.60;99.90
2907;DHT22;1463;51.070;16.998;2023-05-07T10:02:51;10.50;99.90
2907;DHT22;1463;51.070;16.998;2023-05-07T10:05:19;10.60;99.90
2907;DHT22;1463;51.070;16.998;2023-05-07T10:07:47;10.60;99.90
2907;DHT22;1463;51.070;16.998;2023-05-07T10:10:15;10.70;99.90
2907;DHT22;1463;51.070;16.998;2023-05-07T10:12:42;10.60;99.90
2907;DHT22;1463;51.070;16.998;2023-05-07T10:15:11;10.80;99.90
2907;DHT22;1463;51.070;16.998;2023-05-07T10:17:40;11.00;99.90
2907;DHT22;1463;51.070;16.998;2023-05-07T10:20:10;11.20;99.90
2907;DHT22;1463;51.070;16.998;2023-05-07T10:22:39;11.50;99.90
2907;DHT22;1463;51.070;16.998;2023-05-07T10:25:14;11.60;99.90
2907;DHT22;1463;51.070;16.998;2023-05-07T10:27:45;11.60;99.90
2907;DHT22;1463;51.070;16.998;2023-05-07T10:30:24;11.50;99.90
2907;DHT22;1463;51.070;16.998;2023-05-07T10:32:56;11.40;99.90
2907;DHT22;1463;51.070;16.998;2023-05-07T10:35:36;11.30;99.90
2907;DHT22;1463;51.070;16.998;2023-05-07T10:38:05;11.20;99.90
2907;DHT22;1463;51.070;16.998;2023-05-07T10:40:33;11.30;99.90
2907;DHT22;1463;51.070;16.998;2023-05-07T10:43:02;11.30;99.90
2907;DHT22;1463;51.070;16.998;2023-05-07T10:45:32;11.40;99.90
2907;DHT22;1463;51.070;16.998;2023-05-07T10:48:07;11.30;99.90
2907;DHT22;1463;51.070;16.998;2023-05-07T10:50:35;11.40;99.90
2907;DHT22;1463;51.070;16.998;2023-05-07T10:53:22;11.50;99.90
2907;DHT22;1463;51.070;16.998;2023-05-07T10:56:25;11.50;99.90
2907;DHT22;1463;51.070;16.998;2023-05-07T10:58:53;11.50;99.90
2907;DHT22;1463;51.070;16.998;2023-05-07T11:01:52;11.30;99.90
2907;DHT22;1463;51.070;16.998;2023-05-07T11:04:21;11.30;99.90
2907;DHT22;1463;51.070;16.998;2023-05-07T11:07:26;11.30;99.90
2907;DHT22;1463;51.070;16.998;2023-05-07T11:10:04;11.20;99.90
2907;DHT22;1463;51.070;16.998;2023-05-07T11:12:54;11.30;99.90
2907;DHT22;1463;51.070;16.998;2023-05-07T11:15:39;11.20;99.90
2907;DHT22;1463;51.070;16.998;2023-05-07T11:18:09;11.30;99.90
2907;DHT22;1463;51.070;16.998;2023-05-07T11:20:51;11.30;99.90
2907;DHT22;1463;51.070;16.998;2023-05-07T11:23:56;11.30;99.90
2907;DHT22;1463;51.070;16.998;2023-05-07T11:26:26;11.40;99.90
2907;DHT22;1463;51.070;16.998;2023-05-07T11:28:53;11.40;99.90
2907;DHT22;1463;51.070;16.998;2023-05-07T11:31:26;11.60;99.90
2907;DHT22;1463;51.070;16.998;2023-05-07T11:33:57;11.50;99.90
2907;DHT22;1463;51.070;16.998;2023-05-07T11:36:25;11.60;99.90
2907;DHT22;1463;51.070;16.998;2023-05-07T11:38:53;11.60;99.90
2907;DHT22;1463;51.070;16.998;2023-05-07T11:41:21;11.50;99.90
2907;DHT22;1463;51.070;16.998;2023-05-07T11:43:59;11.50;99.90
2907;DHT22;1463;51.070;16.998;2023-05-07T11:46:28;11.40;99.90
2907;DHT22;1463;51.070;16.998;2023-05-07T11:48:57;11.30;99.90
2907;DHT22;1463;51.070;16.998;2023-05-07T11:51:25;11.40;99.90
2907;DHT22;1463;51.070;16.998;2023-05-07T11:53:55;11.30;99.90
2907;DHT22;1463;51.070;16.998;2023-05-07T11:56:23;11.30;99.90
2907;DHT22;1463;51.070;16.998;2023-05-07T11:58:51;11.30;99.90
2907;DHT22;1463;51.070;16.998;2023-05-07T12:01:18;11.30;99.90
2907;DHT22;1463;51.070;16.998;2023-05-07T12:03:46;11.50;99.90
2907;DHT22;1463;51.070;16.998;2023-05-07T12:06:16;11.50;99.90
2907;DHT22;1463;51.070;16.998;2023-05-07T12:08:44;11.50;99.90
2907;DHT22;1463;51.070;16.998;2023-05-07T12:11:16;11.40;99.90
2907;DHT22;1463;51.070;16.998;2023-05-07T12:13:44;11.40;99.90
2907;DHT22;1463;51.070;16.998;2023-05-07T12:16:11;11.40;99.90
2907;DHT22;1463;51.070;16.998;2023-05-07T12:18:40;11.30;99.90
2907;DHT22;1463;51.070;16.998;2023-05-07T12:21:08;11.30;99.90
2907;DHT22;1463;51.070;16.998;2023-05-07T12:23:38;11.30;99.90
2907;DHT22;1463;51.070;16.998;2023-05-07T12:26:06;11.30;99.90
2907;DHT22;1463;51.070;16.998;2023-05-07T12:28:37;11.50;99.90
2907;DHT22;1463;51.070;16.998;2023-05-07T12:31:05;11.50;99.90
2907;DHT22;1463;51.070;16.998;2023-05-07T12:33:34;11.60;99.90
2907;DHT22;1463;51.070;16.998;2023-05-07T12:36:05;11.60;99.90
2907;DHT22;1463;51.070;16.998;2023-05-07T12:38:37;11.60;99.90
2907;DHT22;1463;51.070;16.998;2023-05-07T12:41:07;11.60;99.90
2907;DHT22;1463;51.070;16.998;2023-05-07T12:43:35;11.60;99.90
2907;DHT22;1463;51.070;16.998;2023-05-07T12:46:05;11.60;99.90
2907;DHT22;1463;51.070;16.998;2023-05-07T12:48:32;11.50;99.90
2907;DHT22;1463;51.070;16.998;2023-05-07T12:51:00;11.60;99.90
2907;DHT22;1463;51.070;16.998;2023-05-07T12:53:29;11.60;99.90
2907;DHT22;1463;51.070;16.998;2023-05-07T12:55:59;11.50;99.90
2907;DHT22;1463;51.070;16.998;2023-05-07T12:58:28;11.50;99.90
2907;DHT22;1463;51.070;16.998;2023-05-07T13:00:56;11.50;99.90
2907;DHT22;1463;51.070;16.998;2023-05-07T13:03:26;11.50;99.90
2907;DHT22;1463;51.070;16.998;2023-05-07T13:05:55;11.50;99.90
2907;DHT22;1463;51.070;16.998;2023-05-07T13:08:27;11.40;99.90
2907;DHT22;1463;51.070;16.998;2023-05-07T13:10:55;11.50;99.90
2907;DHT22;1463;51.070;16.998;2023-05-07T13:13:27;11.50;99.90
2907;DHT22;1463;51.070;16.998;2023-05-07T13:15:55;11.40;99.90
2907;DHT22;1463;51.070;16.998;2023-05-07T13:18:23;11.50;99.90
2907;DHT22;1463;51.070;16.998;2023-05-07T13:20:51;11.60;99.90
2907;DHT22;1463;51.070;16.998;2023-05-07T13:23:19;11.60;99.90
2907;DHT22;1463;51.070;16.998;2023-05-07T13:25:47;11.50;99.90
2907;DHT22;1463;51.070;16.998;2023-05-07T13:28:15;11.40;99.90
2907;DHT22;1463;51.070;16.998;2023-05-07T13:30:44;11.50;99.90
2907;DHT22;1463;51.070;16.998;2023-05-07T13:33:12;11.40;99.90
2907;DHT22;1463;51.070;16.998;2023-05-07T13:35:41;11.40;99.90
2907;DHT22;1463;51.070;16.998;2023-05-07T13:38:09;11.40;99.90
2907;DHT22;1463;51.070;16.998;2023-05-07T13:40:36;11.30;99.90
2907;DHT22;1463;51.070;16.998;2023-05-07T13:43:05;11.30;99.90
2907;DHT22;1463;51.070;16.998;2023-05-07T13:45:33;11.40;99.90
2907;DHT22;1463;51.070;16.998;2023-05-07T13:48:03;11.30;99.90
2907;DHT22;1463;51.070;16.998;2023-05-07T13:50:31;11.30;99.90
2907;DHT22;1463;51.070;16.998;2023-05-07T13:52:58;11.50;99.90
2907;DHT22;1463;51.070;16.998;2023-05-07T13:55:28;11.50;99.90
2907;DHT22;1463;51.070;16.998;2023-05-07T13:57:56;11.50;99.90
2907;DHT22;1463;51.070;16.998;2023-05-07T14:00:24;11.40;99.90
2907;DHT22;1463;51.070;16.998;2023-05-07T14:02:52;11.50;99.90
2907;DHT22;1463;51.070;16.998;2023-05-07T14:05:21;11.40;99.90
2907;DHT22;1463;51.070;16.998;2023-05-07T14:07:50;11.40;99.90
2907;DHT22;1463;51.070;16.998;2023-05-07T14:10:19;11.30;99.90
2907;DHT22;1463;51.070;16.998;2023-05-07T14:12:47;11.30;99.90
2907;DHT22;1463;51.070;16.998;2023-05-07T14:15:15;11.30;99.90
2907;DHT22;1463;51.070;16.998;2023-05-07T14:17:43;11.20;99.90
2907;DHT22;1463;51.070;16.998;2023-05-07T14:20:11;11.10;99.90
2907;DHT22;1463;51.070;16.998;2023-05-07T14:22:40;11.00;99.90
2907;DHT22;1463;51.070;16.998;2023-05-07T14:25:08;11.00;99.90
2907;DHT22;1463;51.070;16.998;2023-05-07T14:27:37;11.00;99.90
2907;DHT22;1463;51.070;16.998;2023-05-07T14:30:05;11.10;99.90
2907;DHT22;1463;51.070;16.998;2023-05-07T14:32:33;11.20;99.90
2907;DHT22;1463;51.070;16.998;2023-05-07T14:35:00;11.30;99.90
2907;DHT22;1463;51.070;16.998;2023-05-07T14:37:28;11.30;99.90
2907;DHT22;1463;51.070;16.998;2023-05-07T14:39:57;11.30;99.90
2907;DHT22;1463;51.070;16.998;2023-05-07T14:42:24;11.30;99.90
2907;DHT22;1463;51.070;16.998;2023-05-07T14:44:51;11.20;99.90
2907;DHT22;1463;51.070;16.998;2023-05-07T14:47:19;11.20;99.90
2907;DHT22;1463;51.070;16.998;2023-05-07T14:49:47;11.30;99.90
2907;DHT22;1463;51.070;16.998;2023-05-07T14:52:14;11.30;99.90
2907;DHT22;1463;51.070;16.998;2023-05-07T14:54:41;11.30;99.90
2907;DHT22;1463;51.070;16.998;2023-05-07T14:57:11;11.30;99.90
2907;DHT22;1463;51.070;16.998;2023-05-07T14:59:40;11.30;99.90
2907;DHT22;1463;51.070;16.998;2023-05-07T15:02:08;11.30;99.90
2907;DHT22;1463;51.070;16.998;2023-05-07T15:04:36;11.30;99.90
2907;DHT22;1463;51.070;16.998;2023-05-07T15:07:04;11.40;99.90
2907;DHT22;1463;51.070;16.998;2023-05-07T15:09:31;11.30;99.90
2907;DHT22;1463;51.070;16.998;2023-05-07T15:11:59;11.20;99.90
2907;DHT22;1463;51.070;16.998;2023-05-07T15:14:29;11.30;99.90
2907;DHT22;1463;51.070;16.998;2023-05-07T15:16:57;11.30;99.90
2907;DHT22;1463;51.070;16.998;2023-05-07T15:19:24;11.30;99.90
2907;DHT22;1463;51.070;16.998;2023-05-07T15:21:54;11.40;99.90
2907;DHT22;1463;51.070;16.998;2023-05-07T15:24:22;11.20;99.90
2907;DHT22;1463;51.070;16.998;2023-05-07T15:26:51;11.20;99.90
2907;DHT22;1463;51.070;16.998;2023-05-07T15:29:18;11.20;99.90
2907;DHT22;1463;51.070;16.998;2023-05-07T15:31:48;11.30;99.90
2907;DHT22;1463;51.070;16.998;2023-05-07T15:34:15;11.30;99.90
2907;DHT22;1463;51.070;16.998;2023-05-07T15:36:43;11.30;99.90
2907;DHT22;1463;51.070;16.998;2023-05-07T15:39:10;11.20;99.90
2907;DHT22;1463;51.070;16.998;2023-05-07T15:41:38;11.10;99.90
2907;DHT22;1463;51.070;16.998;2023-05-07T15:44:06;11.10;99.90
2907;DHT22;1463;51.070;16.998;2023-05-07T15:46:33;11.10;99.90
2907;DHT22;1463;51.070;16.998;2023-05-07T15:49:03;11.20;99.90
2907;DHT22;1463;51.070;16.998;2023-05-07T15:51:33;11.30;99.90
2907;DHT22;1463;51.070;16.998;2023-05-07T15:54:01;11.20;99.90
2907;DHT22;1463;51.070;16.998;2023-05-07T15:56:28;11.20;99.90
2907;DHT22;1463;51.070;16.998;2023-05-07T15:58:58;11.20;99.90